Woodruff, Arizona
Current Conditions -  °F | °C
As of 1:55 PM on Friday 21 Nov 2014 (Local Time) from KSOW Reporting Station
Few Clouds Few Clouds  
Wind Chill: 44°   Ceiling: Unl
Heat Index: 48°   Visibility: 10mi
Dew Point: 12°   Wind: 9mph
Humidity: 24%   Direction: 190°S
Pressure: 30.02"   Gusts: NA
Location:  34.78°N, 110.04°W
Report Text: KSOW 212055Z AUTO 19008KT 10SM FEW100 09/M11 A3002 RMK AO2
Loading
Personal Weather Stations






























Interactive Weather Map New forecast layout! Learn more

10-Day Weather Forecast

Advertisements
Track Severe Weather on mobile